sensor_id;sensor_type;location;lat;lon;timestamp;temperature;humidity
21104;DHT22;10710;53.398;-1.514;2023-12-29T00:27:36;8.50;99.90
21104;DHT22;10710;53.398;-1.514;2023-12-29T00:30:20;8.50;99.90
21104;DHT22;10710;53.398;-1.514;2023-12-29T00:33:05;8.60;99.90
21104;DHT22;10710;53.398;-1.514;2023-12-29T00:35:50;8.60;99.90
21104;DHT22;10710;53.398;-1.514;2023-12-29T00:38:34;8.60;99.90
21104;DHT22;10710;53.398;-1.514;2023-12-29T00:41:19;8.50;99.90
21104;DHT22;10710;53.398;-1.514;2023-12-29T00:44:04;8.40;99.90
21104;DHT22;10710;53.398;-1.514;2023-12-29T00:46:49;8.50;99.90
21104;DHT22;10710;53.398;-1.514;2023-12-29T00:49:37;8.60;99.90
21104;DHT22;10710;53.398;-1.514;2023-12-29T00:52:22;8.50;99.90
21104;DHT22;10710;53.398;-1.514;2023-12-29T00:55:07;8.40;99.90
21104;DHT22;10710;53.398;-1.514;2023-12-29T00:57:51;8.40;99.90
21104;DHT22;10710;53.398;-1.514;2023-12-29T01:00:36;8.40;99.90
21104;DHT22;10710;53.398;-1.514;2023-12-29T01:03:20;8.40;99.90
21104;DHT22;10710;53.398;-1.514;2023-12-29T01:06:04;8.40;99.90
21104;DHT22;10710;53.398;-1.514;2023-12-29T01:08:49;8.40;99.90
21104;DHT22;10710;53.398;-1.514;2023-12-29T01:11:34;8.50;99.90
21104;DHT22;10710;53.398;-1.514;2023-12-29T01:14:19;8.40;99.90
21104;DHT22;10710;53.398;-1.514;2023-12-29T01:17:03;8.50;99.90
21104;DHT22;10710;53.398;-1.514;2023-12-29T01:19:52;8.40;99.90
21104;DHT22;10710;53.398;-1.514;2023-12-29T01:22:38;8.40;99.90
21104;DHT22;10710;53.398;-1.514;2023-12-29T01:25:23;8.30;99.90
21104;DHT22;10710;53.398;-1.514;2023-12-29T01:28:08;8.30;99.90
21104;DHT22;10710;53.398;-1.514;2023-12-29T01:30:52;8.40;99.90
21104;DHT22;10710;53.398;-1.514;2023-12-29T01:33:37;8.40;99.90
21104;DHT22;10710;53.398;-1.514;2023-12-29T01:36:22;8.40;99.90
21104;DHT22;10710;53.398;-1.514;2023-12-29T01:39:06;8.30;99.90
21104;DHT22;10710;53.398;-1.514;2023-12-29T01:41:52;8.40;99.90
21104;DHT22;10710;53.398;-1.514;2023-12-29T01:44:36;8.40;99.90
21104;DHT22;10710;53.398;-1.514;2023-12-29T01:47:22;8.40;99.90
21104;DHT22;10710;53.398;-1.514;2023-12-29T01:50:06;8.30;99.90
21104;DHT22;10710;53.398;-1.514;2023-12-29T01:52:52;8.20;99.90
21104;DHT22;10710;53.398;-1.514;2023-12-29T01:55:37;8.20;99.90
21104;DHT22;10710;53.398;-1.514;2023-12-29T01:58:22;8.20;99.90
21104;DHT22;10710;53.398;-1.514;2023-12-29T02:01:07;8.30;99.90
21104;DHT22;10710;53.398;-1.514;2023-12-29T02:03:52;8.20;99.90
21104;DHT22;10710;53.398;-1.514;2023-12-29T02:06:37;8.20;99.90
21104;DHT22;10710;53.398;-1.514;2023-12-29T02:09:23;8.20;99.90
21104;DHT22;10710;53.398;-1.514;2023-12-29T02:12:07;8.30;99.90
21104;DHT22;10710;53.398;-1.514;2023-12-29T02:14:52;8.30;99.90
21104;DHT22;10710;53.398;-1.514;2023-12-29T02:17:44;8.20;99.90
21104;DHT22;10710;53.398;-1.514;2023-12-29T02:20:29;8.20;99.90
21104;DHT22;10710;53.398;-1.514;2023-12-29T02:23:14;8.20;99.90
21104;DHT22;10710;53.398;-1.514;2023-12-29T02:26:02;8.20;99.90
21104;DHT22;10710;53.398;-1.514;2023-12-29T02:28:58;8.20;99.90
21104;DHT22;10710;53.398;-1.514;2023-12-29T02:31:48;8.30;99.90
21104;DHT22;10710;53.398;-1.514;2023-12-29T02:34:35;8.40;99.90
21104;DHT22;10710;53.398;-1.514;2023-12-29T02:37:21;8.40;99.90
21104;DHT22;10710;53.398;-1.514;2023-12-29T02:40:10;8.40;99.90
21104;DHT22;10710;53.398;-1.514;2023-12-29T02:42:54;8.40;99.90
21104;DHT22;10710;53.398;-1.514;2023-12-29T02:45:39;8.40;99.90
21104;DHT22;10710;53.398;-1.514;2023-12-29T02:48:24;8.40;99.90
21104;DHT22;10710;53.398;-1.514;2023-12-29T02:51:08;8.40;99.90
21104;DHT22;10710;53.398;-1.514;2023-12-29T02:53:52;8.40;99.90
21104;DHT22;10710;53.398;-1.514;2023-12-29T02:56:36;8.30;99.90
21104;DHT22;10710;53.398;-1.514;2023-12-29T02:59:21;8.30;99.90
21104;DHT22;10710;53.398;-1.514;2023-12-29T03:02:51;8.30;99.90
21104;DHT22;10710;53.398;-1.514;2023-12-29T03:08:52;8.30;99.90
21104;DHT22;10710;53.398;-1.514;2023-12-29T03:11:36;8.60;99.90
21104;DHT22;10710;53.398;-1.514;2023-12-29T03:14:20;8.30;99.90
21104;DHT22;10710;53.398;-1.514;2023-12-29T03:17:05;8.30;99.90
21104;DHT22;10710;53.398;-1.514;2023-12-29T03:19:49;8.20;99.90
21104;DHT22;10710;53.398;-1.514;2023-12-29T03:22:34;8.20;99.90
21104;DHT22;10710;53.398;-1.514;2023-12-29T03:25:18;8.20;99.90
21104;DHT22;10710;53.398;-1.514;2023-12-29T03:28:02;8.20;99.90
21104;DHT22;10710;53.398;-1.514;2023-12-29T03:30:46;8.20;99.90
21104;DHT22;10710;53.398;-1.514;2023-12-29T03:33:31;8.20;99.90
21104;DHT22;10710;53.398;-1.514;2023-12-29T03:36:15;8.10;99.90
21104;DHT22;10710;53.398;-1.514;2023-12-29T03:38:59;8.10;99.90
21104;DHT22;10710;53.398;-1.514;2023-12-29T03:41:43;8.10;99.90
21104;DHT22;10710;53.398;-1.514;2023-12-29T03:44:28;8.10;99.90
21104;DHT22;10710;53.398;-1.514;2023-12-29T03:47:12;8.10;99.90
21104;DHT22;10710;53.398;-1.514;2023-12-29T03:49:56;8.10;99.90
21104;DHT22;10710;53.398;-1.514;2023-12-29T03:52:41;8.10;99.90
21104;DHT22;10710;53.398;-1.514;2023-12-29T03:55:25;8.10;99.90
21104;DHT22;10710;53.398;-1.514;2023-12-29T03:58:10;8.10;99.90
21104;DHT22;10710;53.398;-1.514;2023-12-29T04:00:54;8.10;99.90
21104;DHT22;10710;53.398;-1.514;2023-12-29T04:03:39;8.10;99.90
21104;DHT22;10710;53.398;-1.514;2023-12-29T04:06:23;8.10;99.90
21104;DHT22;10710;53.398;-1.514;2023-12-29T04:09:08;8.10;99.90
21104;DHT22;10710;53.398;-1.514;2023-12-29T04:11:52;8.10;99.90
21104;DHT22;10710;53.398;-1.514;2023-12-29T04:14:36;8.10;99.90
21104;DHT22;10710;53.398;-1.514;2023-12-29T04:17:20;8.10;99.90
21104;DHT22;10710;53.398;-1.514;2023-12-29T04:20:05;8.10;99.90
21104;DHT22;10710;53.398;-1.514;2023-12-29T04:22:49;8.00;99.90
21104;DHT22;10710;53.398;-1.514;2023-12-29T04:25:33;8.10;99.90
21104;DHT22;10710;53.398;-1.514;2023-12-29T04:28:17;8.10;99.90
21104;DHT22;10710;53.398;-1.514;2023-12-29T04:31:02;8.10;99.90
21104;DHT22;10710;53.398;-1.514;2023-12-29T04:33:47;8.10;99.90
21104;DHT22;10710;53.398;-1.514;2023-12-29T04:36:31;8.10;99.90
21104;DHT22;10710;53.398;-1.514;2023-12-29T04:39:16;8.10;99.90
21104;DHT22;10710;53.398;-1.514;2023-12-29T04:42:00;8.00;99.90
21104;DHT22;10710;53.398;-1.514;2023-12-29T04:44:44;8.10;99.90
21104;DHT22;10710;53.398;-1.514;2023-12-29T04:47:29;8.00;99.90
21104;DHT22;10710;53.398;-1.514;2023-12-29T04:50:14;8.00;99.90
21104;DHT22;10710;53.398;-1.514;2023-12-29T04:52:58;7.90;99.90
21104;DHT22;10710;53.398;-1.514;2023-12-29T04:55:42;8.00;99.90
21104;DHT22;10710;53.398;-1.514;2023-12-29T04:58:27;7.90;99.90
21104;DHT22;10710;53.398;-1.514;2023-12-29T05:01:11;8.00;99.90
21104;DHT22;10710;53.398;-1.514;2023-12-29T05:03:55;7.90;99.90
21104;DHT22;10710;53.398;-1.514;2023-12-29T05:06:39;7.90;99.90
21104;DHT22;10710;53.398;-1.514;2023-12-29T05:09:23;7.80;99.90
21104;DHT22;10710;53.398;-1.514;2023-12-29T05:12:07;7.90;99.90
21104;DHT22;10710;53.398;-1.514;2023-12-29T05:14:52;7.90;99.90
21104;DHT22;10710;53.398;-1.514;2023-12-29T05:17:36;7.90;99.90
21104;DHT22;10710;53.398;-1.514;2023-12-29T05:20:23;7.90;99.90
21104;DHT22;10710;53.398;-1.514;2023-12-29T05:23:07;7.90;99.90
21104;DHT22;10710;53.398;-1.514;2023-12-29T05:25:52;7.90;99.90
21104;DHT22;10710;53.398;-1.514;2023-12-29T05:28:36;7.90;99.90
21104;DHT22;10710;53.398;-1.514;2023-12-29T05:31:20;7.90;99.90
21104;DHT22;10710;53.398;-1.514;2023-12-29T05:34:04;7.80;99.90
21104;DHT22;10710;53.398;-1.514;2023-12-29T05:36:49;7.90;99.90
21104;DHT22;10710;53.398;-1.514;2023-12-29T05:39:34;7.80;99.90
21104;DHT22;10710;53.398;-1.514;2023-12-29T05:42:18;7.80;99.90
21104;DHT22;10710;53.398;-1.514;2023-12-29T05:45:03;7.80;99.90
21104;DHT22;10710;53.398;-1.514;2023-12-29T05:47:48;7.80;99.90
21104;DHT22;10710;53.398;-1.514;2023-12-29T05:50:32;7.70;99.90
21104;DHT22;10710;53.398;-1.514;2023-12-29T05:53:17;7.70;99.90
21104;DHT22;10710;53.398;-1.514;2023-12-29T05:56:02;7.70;99.90
21104;DHT22;10710;53.398;-1.514;2023-12-29T05:58:46;7.70;99.90
21104;DHT22;10710;53.398;-1.514;2023-12-29T06:01:31;7.70;99.90
21104;DHT22;10710;53.398;-1.514;2023-12-29T06:04:15;7.70;99.90
21104;DHT22;10710;53.398;-1.514;2023-12-29T06:06:59;7.70;99.90
21104;DHT22;10710;53.398;-1.514;2023-12-29T06:09:44;7.70;99.90
21104;DHT22;10710;53.398;-1.514;2023-12-29T06:12:28;7.70;99.90
21104;DHT22;10710;53.398;-1.514;2023-12-29T06:15:13;7.70;99.90
21104;DHT22;10710;53.398;-1.514;2023-12-29T06:17:58;7.70;99.90
21104;DHT22;10710;53.398;-1.514;2023-12-29T06:20:43;7.80;99.90
21104;DHT22;10710;53.398;-1.514;2023-12-29T06:23:27;7.70;99.90
21104;DHT22;10710;53.398;-1.514;2023-12-29T06:26:19;7.70;99.90
21104;DHT22;10710;53.398;-1.514;2023-12-29T06:29:04;7.70;99.90
21104;DHT22;10710;53.398;-1.514;2023-12-29T06:31:48;7.70;99.90
21104;DHT22;10710;53.398;-1.514;2023-12-29T06:34:33;7.80;99.90
21104;DHT22;10710;53.398;-1.514;2023-12-29T06:37:17;7.80;99.90
21104;DHT22;10710;53.398;-1.514;2023-12-29T06:40:02;7.80;99.90
21104;DHT22;10710;53.398;-1.514;2023-12-29T06:42:47;7.80;99.90
21104;DHT22;10710;53.398;-1.514;2023-12-29T06:45:32;7.80;99.90
21104;DHT22;10710;53.398;-1.514;2023-12-29T06:48:16;7.80;99.90
21104;DHT22;10710;53.398;-1.514;2023-12-29T06:51:00;7.70;99.90
21104;DHT22;10710;53.398;-1.514;2023-12-29T06:53:46;7.70;99.90
21104;DHT22;10710;53.398;-1.514;2023-12-29T06:56:31;7.70;99.90
21104;DHT22;10710;53.398;-1.514;2023-12-29T06:59:15;7.70;99.90
21104;DHT22;10710;53.398;-1.514;2023-12-29T07:02:00;7.70;99.90
21104;DHT22;10710;53.398;-1.514;2023-12-29T07:04:45;7.70;99.90
21104;DHT22;10710;53.398;-1.514;2023-12-29T07:07:30;7.70;99.90
21104;DHT22;10710;53.398;-1.514;2023-12-29T07:10:14;7.70;99.90
21104;DHT22;10710;53.398;-1.514;2023-12-29T07:12:59;7.70;99.90
21104;DHT22;10710;53.398;-1.514;2023-12-29T07:15:43;7.80;99.90
21104;DHT22;10710;53.398;-1.514;2023-12-29T07:18:28;7.70;99.90
21104;DHT22;10710;53.398;-1.514;2023-12-29T07:21:14;7.60;99.90
21104;DHT22;10710;53.398;-1.514;2023-12-29T07:23:58;7.60;99.90
21104;DHT22;10710;53.398;-1.514;2023-12-29T07:26:42;7.60;99.90
21104;DHT22;10710;53.398;-1.514;2023-12-29T07:29:27;7.60;99.90
21104;DHT22;10710;53.398;-1.514;2023-12-29T07:32:12;7.60;99.90
21104;DHT22;10710;53.398;-1.514;2023-12-29T07:34:56;7.60;99.90
21104;DHT22;10710;53.398;-1.514;2023-12-29T07:37:41;7.60;99.90
21104;DHT22;10710;53.398;-1.514;2023-12-29T07:40:25;7.50;99.90
21104;DHT22;10710;53.398;-1.514;2023-12-29T07:43:10;7.60;99.90
21104;DHT22;10710;53.398;-1.514;2023-12-29T07:45:54;7.60;99.90
21104;DHT22;10710;53.398;-1.514;2023-12-29T07:48:39;7.50;99.90
21104;DHT22;10710;53.398;-1.514;2023-12-29T07:51:23;7.60;99.90
21104;DHT22;10710;53.398;-1.514;2023-12-29T07:54:08;7.60;99.90
21104;DHT22;10710;53.398;-1.514;2023-12-29T07:56:52;7.50;99.90
21104;DHT22;10710;53.398;-1.514;2023-12-29T07:59:37;7.50;99.90
21104;DHT22;10710;53.398;-1.514;2023-12-29T08:02:21;7.50;99.90
21104;DHT22;10710;53.398;-1.514;2023-12-29T08:05:06;7.40;99.90
21104;DHT22;10710;53.398;-1.514;2023-12-29T08:07:52;7.40;99.90
21104;DHT22;10710;53.398;-1.514;2023-12-29T08:10:36;7.40;99.90
21104;DHT22;10710;53.398;-1.514;2023-12-29T08:56:47;7.40;99.90
21104;DHT22;10710;53.398;-1.514;2023-12-29T08:59:32;7.30;99.90
21104;DHT22;10710;53.398;-1.514;2023-12-29T09:02:16;7.30;99.90
21104;DHT22;10710;53.398;-1.514;2023-12-29T09:05:01;7.40;99.90
21104;DHT22;10710;53.398;-1.514;2023-12-29T09:07:45;7.40;99.90
21104;DHT22;10710;53.398;-1.514;2023-12-29T09:10:31;7.30;99.90
21104;DHT22;10710;53.398;-1.514;2023-12-29T09:13:16;7.30;99.90
21104;DHT22;10710;53.398;-1.514;2023-12-29T09:16:02;7.30;99.90
21104;DHT22;10710;53.398;-1.514;2023-12-29T09:18:47;7.40;99.90
21104;DHT22;10710;53.398;-1.514;2023-12-29T09:21:32;7.40;99.90
21104;DHT22;10710;53.398;-1.514;2023-12-29T09:24:16;7.40;99.90
21104;DHT22;10710;53.398;-1.514;2023-12-29T09:27:01;7.40;99.90
21104;DHT22;10710;53.398;-1.514;2023-12-29T09:29:45;7.60;99.90
21104;DHT22;10710;53.398;-1.514;2023-12-29T09:32:30;7.60;99.90
21104;DHT22;10710;53.398;-1.514;2023-12-29T09:35:14;7.60;99.90
21104;DHT22;10710;53.398;-1.514;2023-12-29T09:37:58;7.60;99.90
21104;DHT22;10710;53.398;-1.514;2023-12-29T09:40:44;7.60;99.90
21104;DHT22;10710;53.398;-1.514;2023-12-29T09:43:31;7.50;99.90
21104;DHT22;10710;53.398;-1.514;2023-12-29T09:46:17;7.60;99.90
21104;DHT22;10710;53.398;-1.514;2023-12-29T09:49:03;7.70;99.90
21104;DHT22;10710;53.398;-1.514;2023-12-29T09:51:50;7.60;99.90
21104;DHT22;10710;53.398;-1.514;2023-12-29T09:54:35;7.60;99.90
21104;DHT22;10710;53.398;-1.514;2023-12-29T09:57:20;7.70;99.90
21104;DHT22;10710;53.398;-1.514;2023-12-29T10:00:07;7.60;99.90
21104;DHT22;10710;53.398;-1.514;2023-12-29T10:02:54;7.70;99.90
21104;DHT22;10710;53.398;-1.514;2023-12-29T10:05:39;7.60;99.90
21104;DHT22;10710;53.398;-1.514;2023-12-29T10:08:23;7.70;99.90
21104;DHT22;10710;53.398;-1.514;2023-12-29T10:11:10;7.70;99.90
21104;DHT22;10710;53.398;-1.514;2023-12-29T10:13:56;7.80;99.90
21104;DHT22;10710;53.398;-1.514;2023-12-29T10:16:45;7.70;99.90
21104;DHT22;10710;53.398;-1.514;2023-12-29T10:19:40;7.80;99.90
21104;DHT22;10710;53.398;-1.514;2023-12-29T10:22:44;7.90;99.90
21104;DHT22;10710;53.398;-1.514;2023-12-29T10:25:31;7.80;99.90
21104;DHT22;10710;53.398;-1.514;2023-12-29T10:28:16;8.10;99.90
21104;DHT22;10710;53.398;-1.514;2023-12-29T10:31:03;7.80;99.90
21104;DHT22;10710;53.398;-1.514;2023-12-29T10:33:48;7.80;99.90
21104;DHT22;10710;53.398;-1.514;2023-12-29T10:36:50;7.80;99.90
21104;DHT22;10710;53.398;-1.514;2023-12-29T10:39:35;7.80;99.90
21104;DHT22;10710;53.398;-1.514;2023-12-29T10:42:20;7.80;99.90
21104;DHT22;10710;53.398;-1.514;2023-12-29T10:45:07;7.80;99.90
21104;DHT22;10710;53.398;-1.514;2023-12-29T10:47:51;7.80;99.90
21104;DHT22;10710;53.398;-1.514;2023-12-29T10:50:43;7.80;99.90
21104;DHT22;10710;53.398;-1.514;2023-12-29T13:54:55;8.80;99.90
21104;DHT22;10710;53.398;-1.514;2023-12-29T13:57:45;8.70;99.90
21104;DHT22;10710;53.398;-1.514;2023-12-29T14:01:23;8.90;99.90
21104;DHT22;10710;53.398;-1.514;2023-12-29T14:04:15;8.80;99.90
21104;DHT22;10710;53.398;-1.514;2023-12-29T14:07:23;9.00;99.90
21104;DHT22;10710;53.398;-1.514;2023-12-29T14:10:15;8.30;99.90
21104;DHT22;10710;53.398;-1.514;2023-12-29T14:13:18;8.90;99.90
21104;DHT22;10710;53.398;-1.514;2023-12-29T14:16:03;8.90;99.90
21104;DHT22;10710;53.398;-1.514;2023-12-29T14:18:55;8.90;99.90
21104;DHT22;10710;53.398;-1.514;2023-12-29T14:21:41;9.00;99.90
21104;DHT22;10710;53.398;-1.514;2023-12-29T14:24:27;9.00;99.90
21104;DHT22;10710;53.398;-1.514;2023-12-29T14:27:12;8.90;99.90
21104;DHT22;10710;53.398;-1.514;2023-12-29T14:30:00;8.90;99.90
21104;DHT22;10710;53.398;-1.514;2023-12-29T14:32:44;9.00;99.90
21104;DHT22;10710;53.398;-1.514;2023-12-29T14:35:29;9.00;99.90
21104;DHT22;10710;53.398;-1.514;2023-12-29T14:38:17;8.90;99.90
21104;DHT22;10710;53.398;-1.514;2023-12-29T14:41:01;8.90;99.90
21104;DHT22;10710;53.398;-1.514;2023-12-29T14:43:46;9.10;99.90
21104;DHT22;10710;53.398;-1.514;2023-12-29T14:46:31;9.10;99.90
21104;DHT22;10710;53.398;-1.514;2023-12-29T14:49:17;8.90;99.90
21104;DHT22;10710;53.398;-1.514;2023-12-29T14:52:01;8.80;99.90
21104;DHT22;10710;53.398;-1.514;2023-12-29T14:54:46;8.60;99.90
21104;DHT22;10710;53.398;-1.514;2023-12-29T14:57:32;8.20;99.90
21104;DHT22;10710;53.398;-1.514;2023-12-29T15:00:20;8.00;99.90
21104;DHT22;10710;53.398;-1.514;2023-12-29T15:03:04;7.90;99.90
21104;DHT22;10710;53.398;-1.514;2023-12-29T15:05:49;8.00;99.90
21104;DHT22;10710;53.398;-1.514;2023-12-29T15:08:34;7.90;99.90
21104;DHT22;10710;53.398;-1.514;2023-12-29T15:11:19;7.60;99.90
21104;DHT22;10710;53.398;-1.514;2023-12-29T15:14:03;7.10;99.90
21104;DHT22;10710;53.398;-1.514;2023-12-29T15:16:49;6.90;99.90
21104;DHT22;10710;53.398;-1.514;2023-12-29T15:19:33;6.80;99.90
21104;DHT22;10710;53.398;-1.514;2023-12-29T15:22:18;5.90;99.90
21104;DHT22;10710;53.398;-1.514;2023-12-29T15:25:03;5.90;99.90
21104;DHT22;10710;53.398;-1.514;2023-12-29T15:27:47;5.90;99.90
21104;DHT22;10710;53.398;-1.514;2023-12-29T15:30:32;5.80;99.90
21104;DHT22;10710;53.398;-1.514;2023-12-29T15:33:17;5.60;99.90
21104;DHT22;10710;53.398;-1.514;2023-12-29T15:36:01;5.50;99.90
21104;DHT22;10710;53.398;-1.514;2023-12-29T15:38:46;5.90;99.90
21104;DHT22;10710;53.398;-1.514;2023-12-29T15:41:34;6.00;99.90
21104;DHT22;10710;53.398;-1.514;2023-12-29T15:44:20;6.00;99.90
21104;DHT22;10710;53.398;-1.514;2023-12-29T15:47:04;5.90;99.90
21104;DHT22;10710;53.398;-1.514;2023-12-29T15:49:49;6.00;99.90
21104;DHT22;10710;53.398;-1.514;2023-12-29T15:52:33;6.00;99.90
21104;DHT22;10710;53.398;-1.514;2023-12-29T15:55:18;5.70;99.90
21104;DHT22;10710;53.398;-1.514;2023-12-29T15:58:02;5.40;99.90
21104;DHT22;10710;53.398;-1.514;2023-12-29T16:00:48;5.50;99.90
21104;DHT22;10710;53.398;-1.514;2023-12-29T16:03:32;5.40;99.90
21104;DHT22;10710;53.398;-1.514;2023-12-29T16:06:18;5.30;99.90
21104;DHT22;10710;53.398;-1.514;2023-12-29T16:09:03;5.30;99.90
21104;DHT22;10710;53.398;-1.514;2023-12-29T16:11:48;5.30;99.90
21104;DHT22;10710;53.398;-1.514;2023-12-29T16:14:39;5.50;99.90
21104;DHT22;10710;53.398;-1.514;2023-12-29T16:17:23;5.20;99.90
21104;DHT22;10710;53.398;-1.514;2023-12-29T16:20:08;5.30;99.90
21104;DHT22;10710;53.398;-1.514;2023-12-29T16:22:52;5.20;99.90
21104;DHT22;10710;53.398;-1.514;2023-12-29T16:25:37;5.20;99.90
21104;DHT22;10710;53.398;-1.514;2023-12-29T16:28:22;5.20;99.90
21104;DHT22;10710;53.398;-1.514;2023-12-29T16:31:08;5.20;99.90
21104;DHT22;10710;53.398;-1.514;2023-12-29T16:33:53;5.20;99.90
21104;DHT22;10710;53.398;-1.514;2023-12-29T16:36:37;5.20;99.90
21104;DHT22;10710;53.398;-1.514;2023-12-29T16:39:21;5.40;99.90
21104;DHT22;10710;53.398;-1.514;2023-12-29T16:42:06;5.50;99.90
21104;DHT22;10710;53.398;-1.514;2023-12-29T16:44:50;5.50;99.90
21104;DHT22;10710;53.398;-1.514;2023-12-29T16:47:35;5.60;99.90
21104;DHT22;10710;53.398;-1.514;2023-12-29T16:50:19;5.60;99.90
21104;DHT22;10710;53.398;-1.514;2023-12-29T16:53:03;5.60;99.90
21104;DHT22;10710;53.398;-1.514;2023-12-29T16:55:48;5.70;99.90
21104;DHT22;10710;53.398;-1.514;2023-12-29T16:58:34;5.70;99.90
21104;DHT22;10710;53.398;-1.514;2023-12-29T17:01:18;5.80;99.90
21104;DHT22;10710;53.398;-1.514;2023-12-29T17:04:04;5.80;99.90
21104;DHT22;10710;53.398;-1.514;2023-12-29T17:06:49;5.70;99.90
21104;DHT22;10710;53.398;-1.514;2023-12-29T17:09:37;5.80;99.90
21104;DHT22;10710;53.398;-1.514;2023-12-29T17:12:23;5.90;99.90
21104;DHT22;10710;53.398;-1.514;2023-12-29T17:15:08;5.90;99.90
21104;DHT22;10710;53.398;-1.514;2023-12-29T17:17:53;5.90;99.90
21104;DHT22;10710;53.398;-1.514;2023-12-29T17:20:40;5.90;99.90
21104;DHT22;10710;53.398;-1.514;2023-12-29T17:23:24;5.90;99.90
21104;DHT22;10710;53.398;-1.514;2023-12-29T17:26:10;6.00;99.90
21104;DHT22;10710;53.398;-1.514;2023-12-29T17:28:55;6.00;99.90
21104;DHT22;10710;53.398;-1.514;2023-12-29T17:31:41;6.00;99.90
21104;DHT22;10710;53.398;-1.514;2023-12-29T17:34:25;6.00;99.90
21104;DHT22;10710;53.398;-1.514;2023-12-29T17:37:10;6.10;99.90
21104;DHT22;10710;53.398;-1.514;2023-12-29T17:39:54;6.10;99.90
21104;DHT22;10710;53.398;-1.514;2023-12-29T17:42:39;6.10;99.90
21104;DHT22;10710;53.398;-1.514;2023-12-29T17:45:23;6.30;99.90
21104;DHT22;10710;53.398;-1.514;2023-12-29T17:48:08;6.20;99.90
21104;DHT22;10710;53.398;-1.514;2023-12-29T17:50:52;6.20;99.90
21104;DHT22;10710;53.398;-1.514;2023-12-29T17:53:36;6.30;99.90
